Forside
METAR-TAF:

METAR-TAF

Lufthavne :

Mountain Home, Arkansas, USA

Breddekreds: 36-22-14N, længdekreds: 092-28-19W, højde: 282 m

Aktuelle vejr

Denne rapport blev lavet for 1 time og 7 minutter siden, kl. 00:53 UTC
Vind 9 kt fra vestsydvest
Temperatur 15°C
Fugtighed 31%
Tryk 1003 hPa
Sigt: 16.1 km
skyfri

METAR: KBPK 240053Z AUTO 25009KT 10SM CLR 15/M02 A2962 RMK AO2 SLP026 T01501017 TSNO

Tid: 20:00 (02:00 UTC)

Vejrudsigter

Denne rapport blev lavet for 2 timer og 20 minutter siden, kl. 23:40 UTC
Foreløbig gælder fra 24 på 00 UTC til 24 på 24 UTC
Vind 14 kt fra vestsydvest med vindstød på up til 24 kt
Sigt: 10 km
Spredte skyer i en højde af 25000 ft
Fra 24 på 0600 UTC
Vind 12 kt fra vest med vindstød på up til 22 kt
Sigt: 10 km
Overskyet i en højde af 3000 ft
Fra 24 på 1200 UTC
Vind 10 kt fra vestnordvest med vindstød på up til 20 kt
Sigt: 10 km
skyfri

TAF: KBPK 232340Z 2400/2424 25014G24KT P6SM SCT250 FM240600 27012G22KT P6SM OVC030 FM241200 30010G20KT P6SM SKC

Vejrobservationer og prognoser fra mere end 4000 lufthavne (METAR og TAF).

De gule og røde prikker repræsenterer de meteorologiske stationer.

Flyt musen over at se navnet på stationen.

Så klik over at se vejr observationer og prognoser.

At skifte det kort: Klik på de grønne knapper med et sort kors for at zoome ind; på den grønne knap med en bindestreg for at zoome ud; eller på de grønne pile for tilstødende kort.


METAR-TAF: